Time;durP1;ratioP1;P1;durP2;ratioP2;P2;SDS_P1;SDS_P2;PMS_P1;PMS_P2;Temp;Humidity;BMP_temperature;BMP_pressure;BME280_temperature;BME280_humidity;BME280_pressure;Samples;Min_cycle;Max_cycle;Signal;HPM_P1;HPM_P2
2023/06/05 00:00:40;;;;;;;4.40;2.93;;;20.30;1.00;;;;;;5006479;28;20257;-75
2023/06/05 00:03:06;;;;;;;3.73;2.60;;;20.30;1.00;;;;;;4993682;28;20835;-75
2023/06/05 00:05:31;;;;;;;3.60;2.30;;;20.30;1.00;;;;;;4992478;28;20694;-75
2023/06/05 00:07:57;;;;;;;5.00;2.80;;;20.10;1.00;;;;;;5001317;28;20186;-75
2023/06/05 00:10:24;;;;;;;7.70;3.03;;;20.20;1.00;;;;;;4993706;28;20193;-76
2023/06/05 00:12:50;;;;;;;5.60;2.70;;;20.10;1.00;;;;;;5009400;28;20197;-75
2023/06/05 00:15:15;;;;;;;8.70;2.83;;;20.10;1.00;;;;;;5001391;28;20444;-75
2023/06/05 00:17:41;;;;;;;5.83;2.80;;;20.10;1.00;;;;;;4993349;28;20187;-75
2023/06/05 00:20:09;;;;;;;4.37;2.97;;;20.10;1.00;;;;;;4993169;28;20202;-75
2023/06/05 00:22:35;;;;;;;5.27;3.20;;;20.00;1.00;;;;;;5004537;28;20201;-75
2023/06/05 00:25:01;;;;;;;4.23;2.70;;;19.90;1.00;;;;;;5012548;28;20417;-75
2023/06/05 00:27:28;;;;;;;5.27;3.00;;;19.80;1.00;;;;;;5000147;28;20414;-74
2023/06/05 00:29:53;;;;;;;5.00;2.77;;;19.70;1.00;;;;;;5005262;28;20236;-75
2023/06/05 00:32:19;;;;;;;4.70;3.03;;;19.60;1.00;;;;;;5011037;28;20456;-75
2023/06/05 00:34:44;;;;;;;4.90;3.17;;;19.50;1.00;;;;;;5004451;28;20198;-75
2023/06/05 00:37:11;;;;;;;5.17;3.10;;;19.40;1.00;;;;;;5012233;28;20214;-75
2023/06/05 00:39:36;;;;;;;3.87;2.63;;;19.30;1.00;;;;;;5012443;28;20267;-75
2023/06/05 00:42:02;;;;;;;3.40;2.60;;;19.20;1.00;;;;;;5010568;28;20910;-75
2023/06/05 00:44:27;;;;;;;8.60;2.97;;;19.10;1.00;;;;;;5012442;28;20170;-75
2023/06/05 00:46:53;;;;;;;5.17;3.23;;;19.10;1.00;;;;;;5012142;28;20381;-72
2023/06/05 00:49:20;;;;;;;4.30;3.10;;;18.90;1.00;;;;;;5012406;28;20190;-75
2023/06/05 00:51:46;;;;;;;6.57;2.77;;;18.80;1.00;;;;;;5027182;28;20715;-75
2023/06/05 00:54:13;;;;;;;8.80;3.30;;;18.60;1.00;;;;;;5010803;28;20429;-75
2023/06/05 00:56:40;;;;;;;4.17;2.90;;;18.60;1.00;;;;;;5003841;28;20194;-75
2023/06/05 00:59:06;;;;;;;4.57;3.07;;;18.50;1.00;;;;;;5010431;28;20440;-75
2023/06/05 01:01:34;;;;;;;5.30;3.23;;;18.40;1.00;;;;;;5011927;28;20462;-75
2023/06/05 01:04:00;;;;;;;5.33;3.00;;;18.30;1.00;;;;;;5011747;28;20930;-74
2023/06/05 01:06:27;;;;;;;3.77;3.00;;;18.10;1.00;;;;;;5012092;28;20825;-75
2023/06/05 01:08:53;;;;;;;6.83;2.80;;;18.10;1.00;;;;;;5011750;28;20421;-74
2023/06/05 01:11:40;;;;;;;4.97;2.97;;;18.00;1.00;;;;;;5011666;28;20983;-75
2023/06/05 01:14:20;;;;;;;4.90;3.00;;;17.90;1.00;;;;;;5011564;28;20453;-75
2023/06/05 01:16:48;;;;;;;6.70;3.10;;;17.90;1.00;;;;;;5011848;28;20552;-75
2023/06/05 01:19:14;;;;;;;8.30;3.00;;;17.80;1.00;;;;;;5009914;28;20467;-75
2023/06/05 01:21:40;;;;;;;7.10;3.40;;;17.80;1.00;;;;;;5011443;28;20487;-75
2023/06/05 01:24:06;;;;;;;3.47;2.53;;;17.80;1.00;;;;;;5010012;28;20856;-75
2023/06/05 01:27:09;;;;;;;5.70;2.90;;;17.80;1.00;;;;;;5010327;28;20190;-75
2023/06/05 01:29:56;;;;;;;6.20;3.17;;;17.70;1.00;;;;;;5005333;28;20224;-75
2023/06/05 01:32:44;;;;;;;10.23;2.93;;;17.60;1.00;;;;;;5011464;28;20441;-75
2023/06/05 01:35:10;;;;;;;5.63;3.03;;;17.60;1.00;;;;;;5011211;28;20456;-75
2023/06/05 01:37:46;;;;;;;6.33;2.93;;;17.60;1.00;;;;;;5008282;28;20532;-75
2023/06/05 01:40:14;;;;;;;5.27;2.80;;;17.50;1.00;;;;;;5010939;28;20456;-75
2023/06/05 01:42:40;;;;;;;3.83;2.93;;;17.50;1.00;;;;;;5009977;28;20450;-75
2023/06/05 01:45:08;;;;;;;7.50;3.37;;;17.50;1.00;;;;;;5010687;28;20425;-75
2023/06/05 01:47:36;;;;;;;4.07;3.03;;;17.40;1.00;;;;;;5003051;28;20451;-75
2023/06/05 01:50:02;;;;;;;4.40;2.63;;;17.40;1.00;;;;;;5002876;28;20512;-75
2023/06/05 01:52:27;;;;;;;6.53;2.73;;;17.40;1.00;;;;;;5010943;28;20540;-75
2023/06/05 01:54:53;;;;;;;5.23;2.70;;;17.40;1.00;;;;;;5010847;28;20534;-75
2023/06/05 01:57:18;;;;;;;3.70;2.70;;;17.30;1.00;;;;;;5007811;28;20186;-74
2023/06/05 01:59:45;;;;;;;6.20;2.97;;;17.30;1.00;;;;;;5010928;28;20217;-74
2023/06/05 02:02:11;;;;;;;7.30;2.80;;;17.50;1.00;;;;;;5010719;28;20195;-75
2023/06/05 02:04:37;;;;;;;2.90;2.40;;;17.50;1.00;;;;;;5010693;28;20479;-75
2023/06/05 02:07:05;;;;;;;4.00;2.83;;;17.50;1.00;;;;;;5010729;28;20429;-74
2023/06/05 02:09:33;;;;;;;4.97;3.13;;;17.50;1.00;;;;;;5010720;28;20181;-75
2023/06/05 02:12:03;;;;;;;3.40;2.67;;;17.50;1.00;;;;;;5010836;28;20453;-74
2023/06/05 02:14:31;;;;;;;16.33;3.00;;;17.40;1.00;;;;;;5011144;28;20796;-75
2023/06/05 02:16:58;;;;;;;4.87;2.87;;;17.30;1.00;;;;;;5011111;28;20431;-75
2023/06/05 02:19:24;;;;;;;2.80;2.50;;;17.10;1.00;;;;;;5002714;28;20967;-75
2023/06/05 02:21:51;;;;;;;6.00;2.97;;;17.00;1.00;;;;;;5010680;28;20447;-75
2023/06/05 02:24:18;;;;;;;4.27;2.93;;;17.00;1.00;;;;;;5009266;28;20257;-75
2023/06/05 02:26:44;;;;;;;3.77;2.60;;;17.00;1.00;;;;;;5010745;28;20421;-75
2023/06/05 02:29:10;;;;;;;7.83;3.20;;;16.80;1.00;;;;;;5001851;28;20426;-74
2023/06/05 02:31:36;;;;;;;6.60;3.33;;;16.60;1.00;;;;;;5010168;28;20759;-75
2023/06/05 02:34:02;;;;;;;9.13;3.10;;;16.50;1.00;;;;;;5009856;28;20286;-74
2023/06/05 02:36:32;;;;;;;5.40;2.97;;;16.50;1.00;;;;;;5010050;28;20791;-75
2023/06/05 02:38:59;;;;;;;3.30;3.00;;;16.30;1.00;;;;;;5010550;28;20550;-75
2023/06/05 02:41:26;;;;;;;7.70;2.97;;;16.20;1.00;;;;;;5001838;28;20452;-75
2023/06/05 02:43:53;;;;;;;5.77;2.83;;;16.10;1.00;;;;;;5008852;28;20561;-74
2023/06/05 02:46:19;;;;;;;4.00;3.00;;;16.00;1.00;;;;;;5010163;28;20422;-75
2023/06/05 02:48:44;;;;;;;6.33;3.30;;;15.90;1.00;;;;;;5010191;28;20431;-75
2023/06/05 02:51:10;;;;;;;4.93;2.97;;;15.80;1.00;;;;;;5009270;28;20218;-75
2023/06/05 02:53:37;;;;;;;4.10;2.90;;;15.80;1.00;;;;;;5010095;28;20277;-75
2023/06/05 02:56:03;;;;;;;18.23;3.53;;;15.80;1.00;;;;;;5007488;28;20432;-74
2023/06/05 02:58:29;;;;;;;6.90;3.57;;;15.80;1.00;;;;;;5008782;28;20520;-75
2023/06/05 03:01:01;;;;;;;3.87;3.13;;;15.70;1.00;;;;;;5008720;28;20548;-75
2023/06/05 03:03:29;;;;;;;4.63;3.00;;;15.50;1.00;;;;;;5010155;28;20175;-75
2023/06/05 03:06:03;;;;;;;7.13;3.10;;;15.40;1.00;;;;;;5009864;28;20784;-75
2023/06/05 03:08:30;;;;;;;5.23;3.00;;;15.40;1.00;;;;;;5009894;28;20970;-75
2023/06/05 03:10:55;;;;;;;3.73;2.73;;;15.30;1.00;;;;;;5009968;28;20436;-75
2023/06/05 03:13:21;;;;;;;3.50;3.00;;;15.20;1.00;;;;;;5009570;28;20457;-75
2023/06/05 03:15:46;;;;;;;4.80;3.00;;;15.20;1.00;;;;;;5010297;28;20653;-75
2023/06/05 03:18:12;;;;;;;6.37;3.07;;;15.10;1.00;;;;;;5012378;28;20210;-75
2023/06/05 03:20:38;;;;;;;6.83;2.97;;;15.00;1.00;;;;;;5013607;28;20210;-75
2023/06/05 03:23:03;;;;;;;7.00;3.10;;;15.00;1.00;;;;;;5011604;28;20281;-73
2023/06/05 03:25:29;;;;;;;4.13;2.70;;;14.90;1.00;;;;;;5012154;28;20213;-75
2023/06/05 03:27:55;;;;;;;6.10;2.90;;;;;;;;;;5013365;28;20229;-75
2023/06/05 03:30:21;;;;;;;3.90;2.90;;;14.80;1.00;;;;;;5013058;28;20718;-75
2023/06/05 03:32:47;;;;;;;4.57;3.37;;;14.80;1.00;;;;;;5013308;28;20516;-75
2023/06/05 03:35:13;;;;;;;5.63;3.17;;;14.80;1.00;;;;;;5013027;28;20210;-75
2023/06/05 03:37:38;;;;;;;4.13;3.10;;;14.70;1.00;;;;;;5010079;28;20470;-75
2023/06/05 03:40:04;;;;;;;5.03;3.13;;;14.70;1.00;;;;;;5012859;28;20277;-73
2023/06/05 03:42:30;;;;;;;4.10;3.00;;;14.70;1.00;;;;;;5013046;28;20321;-75
2023/06/05 03:44:56;;;;;;;7.13;2.97;;;14.60;1.00;;;;;;5012815;28;20970;-75
2023/06/05 03:47:21;;;;;;;4.10;3.20;;;14.60;1.00;;;;;;5012639;28;20178;-75
2023/06/05 03:49:47;;;;;;;4.43;2.90;;;14.60;1.00;;;;;;5013048;28;20312;-75
2023/06/05 03:52:16;;;;;;;8.00;3.43;;;14.50;1.00;;;;;;5031395;23;20657;-73
2023/06/05 03:54:44;;;;;;;4.30;2.77;;;14.50;1.00;;;;;;4993150;28;20191;-74
2023/06/05 03:57:12;;;;;;;5.80;2.93;;;14.50;1.00;;;;;;4992262;28;20422;-73
2023/06/05 03:59:37;;;;;;;6.17;3.40;;;14.40;1.00;;;;;;4993094;28;20457;-73
2023/06/05 04:02:04;;;;;;;6.47;3.00;;;14.40;1.00;;;;;;4993101;28;20464;-73
2023/06/05 04:04:30;;;;;;;5.37;2.90;;;14.40;1.00;;;;;;4983865;28;20646;-74
2023/06/05 04:06:55;;;;;;;5.10;3.10;;;14.40;1.00;;;;;;4991806;28;20430;-73
2023/06/05 04:09:21;;;;;;;3.90;2.83;;;14.40;1.00;;;;;;4992789;28;20198;-73
2023/06/05 04:11:47;;;;;;;6.70;3.20;;;14.30;1.00;;;;;;4993051;28;20194;-73
2023/06/05 04:14:13;;;;;;;5.20;3.10;;;14.30;1.00;;;;;;4992650;28;20214;-74
2023/06/05 04:16:39;;;;;;;6.27;3.30;;;14.30;1.00;;;;;;4992957;28;20426;-74
2023/06/05 04:19:09;;;;;;;9.60;2.93;;;14.30;1.00;;;;;;4992580;28;20183;-74
2023/06/05 04:21:35;;;;;;;3.70;3.07;;;14.30;1.00;;;;;;4985267;28;20430;-74
2023/06/05 04:24:03;;;;;;;3.57;2.87;;;14.40;1.00;;;;;;4992703;28;20442;-74
2023/06/05 04:26:28;;;;;;;8.20;2.80;;;14.50;1.00;;;;;;4991125;28;20450;-73
2023/06/05 04:28:56;;;;;;;3.53;2.93;;;14.50;1.00;;;;;;4992492;28;20454;-74
2023/06/05 04:31:23;;;;;;;5.40;2.90;;;14.60;1.00;;;;;;4992195;28;20662;-74
2023/06/05 04:33:48;;;;;;;6.70;3.03;;;14.70;1.00;;;;;;4992390;28;20488;-72
2023/06/05 04:36:14;;;;;;;5.13;3.00;;;14.70;1.00;;;;;;4992280;28;20450;-74
2023/06/05 04:38:39;;;;;;;9.50;2.73;;;14.80;1.00;;;;;;4992463;28;20654;-74
2023/06/05 04:41:05;;;;;;;7.60;3.10;;;14.90;1.00;;;;;;4995102;28;20210;-73
2023/06/05 04:43:31;;;;;;;8.33;3.00;;;14.90;1.00;;;;;;4992103;28;20204;-74
2023/06/05 04:45:56;;;;;;;4.20;3.23;;;15.10;1.00;;;;;;4992285;28;20939;-74
2023/06/05 04:48:22;;;;;;;3.37;2.77;;;15.10;1.00;;;;;;4991752;28;20318;-73
2023/06/05 04:50:48;;;;;;;6.73;3.00;;;15.20;1.00;;;;;;4992331;28;20179;-74
2023/06/05 04:53:13;;;;;;;5.40;2.70;;;15.20;1.00;;;;;;4990304;28;20230;-74
2023/06/05 04:55:39;;;;;;;4.77;3.10;;;15.30;1.00;;;;;;4992060;28;20430;-73
2023/06/05 04:58:05;;;;;;;4.03;2.83;;;15.40;1.00;;;;;;4988847;28;20194;-72
2023/06/05 05:00:31;;;;;;;6.17;3.70;;;15.50;1.00;;;;;;4990411;28;20203;-74
2023/06/05 05:02:57;;;;;;;6.80;3.40;;;15.50;1.00;;;;;;4991781;28;20866;-74
2023/06/05 05:05:22;;;;;;;4.60;3.00;;;15.50;1.00;;;;;;4990343;28;20598;-73
2023/06/05 05:07:48;;;;;;;5.63;2.87;;;15.60;1.00;;;;;;4991818;28;20270;-73
2023/06/05 05:10:14;;;;;;;10.37;3.30;;;15.70;1.00;;;;;;4991789;28;20189;-73
2023/06/05 05:12:39;;;;;;;10.43;3.20;;;15.70;1.00;;;;;;4991827;28;20202;-73
2023/06/05 05:15:06;;;;;;;8.13;3.10;;;15.80;1.00;;;;;;4990485;28;20492;-75
2023/06/05 05:17:31;;;;;;;9.80;2.90;;;15.80;1.00;;;;;;4991392;28;20617;-74
2023/06/05 05:19:57;;;;;;;5.57;3.33;;;15.90;1.00;;;;;;4991773;28;20577;-73
2023/06/05 05:22:23;;;;;;;13.67;3.27;;;16.00;1.00;;;;;;4991341;28;20551;-74
2023/06/05 05:24:49;;;;;;;8.40;3.30;;;16.10;1.00;;;;;;4991581;28;20210;-74
2023/06/05 05:27:14;;;;;;;8.23;3.10;;;16.20;1.00;;;;;;4991271;28;20423;-74
2023/06/05 05:29:40;;;;;;;15.97;3.37;;;16.20;1.00;;;;;;4990161;28;20203;-74
2023/06/05 05:32:05;;;;;;;6.10;3.20;;;16.20;1.00;;;;;;4991355;28;20303;-74
2023/06/05 05:34:31;;;;;;;8.53;3.63;;;16.30;1.00;;;;;;4991021;28;20183;-73
2023/06/05 05:36:57;;;;;;;6.60;3.30;;;16.30;1.00;;;;;;4991750;28;20187;-74
2023/06/05 05:39:22;;;;;;;8.77;2.90;;;16.50;1.00;;;;;;4990427;28;20254;-75
2023/06/05 05:41:48;;;;;;;10.97;3.00;;;16.60;1.00;;;;;;4991278;28;20176;-74
2023/06/05 05:44:13;;;;;;;6.70;3.10;;;16.60;1.00;;;;;;4990959;28;20230;-74
2023/06/05 05:46:39;;;;;;;8.93;3.20;;;16.70;1.00;;;;;;4993678;28;20183;-74
2023/06/05 05:49:04;;;;;;;13.00;3.17;;;16.70;1.00;;;;;;4991235;28;20222;-74
2023/06/05 05:51:30;;;;;;;11.70;3.47;;;16.80;1.00;;;;;;4990750;28;20195;-74
2023/06/05 05:53:56;;;;;;;6.33;3.80;;;16.90;1.00;;;;;;4990120;28;20241;-74
2023/06/05 05:56:21;;;;;;;7.43;4.00;;;17.00;1.00;;;;;;4987979;28;20187;-73
2023/06/05 05:58:47;;;;;;;11.20;4.00;;;17.10;1.00;;;;;;4991270;28;20642;-74
2023/06/05 06:01:13;;;;;;;17.27;3.73;;;17.20;1.00;;;;;;4990718;28;20214;-72
2023/06/05 06:03:38;;;;;;;7.50;3.40;;;17.30;1.00;;;;;;4989959;28;20219;-74
2023/06/05 06:06:07;;;;;;;5.97;3.20;;;17.40;1.00;;;;;;4989953;28;20245;-74
2023/06/05 06:08:35;;;;;;;11.40;3.13;;;17.50;1.00;;;;;;4990833;28;20194;-74
2023/06/05 06:11:03;;;;;;;5.10;2.90;;;17.50;1.00;;;;;;4991233;28;20426;-74
2023/06/05 06:13:29;;;;;;;7.87;3.10;;;17.60;1.00;;;;;;4990674;28;20485;-74
2023/06/05 06:15:55;;;;;;;11.83;2.83;;;17.70;1.00;;;;;;4989676;28;20527;-74
2023/06/05 06:18:20;;;;;;;10.87;3.10;;;17.80;1.00;;;;;;4989290;28;20179;-76
2023/06/05 06:20:47;;;;;;;11.80;2.90;;;17.90;1.00;;;;;;4990887;28;20297;-74
2023/06/05 06:23:12;;;;;;;9.97;2.93;;;17.90;1.00;;;;;;4990891;28;20261;-74
2023/06/05 06:25:39;;;;;;;5.57;3.53;;;18.00;1.00;;;;;;4990874;28;20450;-74
2023/06/05 06:28:05;;;;;;;7.63;3.00;;;18.10;1.00;;;;;;4990664;28;20175;-74
2023/06/05 06:30:31;;;;;;;4.70;2.90;;;18.20;1.00;;;;;;4989895;28;20440;-73
2023/06/05 06:33:00;;;;;;;5.50;3.30;;;18.40;1.00;;;;;;4990592;28;20224;-73
2023/06/05 06:35:26;;;;;;;6.30;4.00;;;18.50;1.00;;;;;;4991441;28;20187;-74
2023/06/05 06:37:56;;;;;;;5.17;2.93;;;18.50;1.00;;;;;;4990472;28;20797;-74
2023/06/05 06:40:22;;;;;;;6.60;2.80;;;18.70;1.00;;;;;;4989365;28;20201;-74
2023/06/05 06:42:48;;;;;;;4.47;2.73;;;18.80;1.00;;;;;;4990783;28;20849;-73
2023/06/05 06:45:14;;;;;;;5.23;3.40;;;18.90;1.00;;;;;;4990195;28;20517;-73
2023/06/05 06:47:41;;;;;;;10.97;3.27;;;19.10;1.00;;;;;;4990313;28;20537;-73
2023/06/05 06:50:07;;;;;;;9.50;2.67;;;19.20;1.00;;;;;;4990546;28;20201;-73
2023/06/05 06:52:32;;;;;;;7.00;3.60;;;19.30;1.00;;;;;;4993605;28;20465;-73
2023/06/05 06:54:58;;;;;;;20.03;3.27;;;19.30;1.00;;;;;;4994427;28;20452;-73
2023/06/05 06:57:23;;;;;;;7.60;3.20;;;19.40;1.00;;;;;;4992636;28;20197;-73
2023/06/05 06:59:49;;;;;;;8.83;3.10;;;19.70;1.00;;;;;;4993100;28;20633;-74
2023/06/05 07:02:16;;;;;;;8.03;2.90;;;19.80;1.00;;;;;;4992787;28;20198;-73
2023/06/05 07:04:43;;;;;;;5.00;3.20;;;19.90;1.00;;;;;;4992902;28;20270;-73
2023/06/05 07:07:13;;;;;;;7.90;3.07;;;20.00;1.00;;;;;;4992910;28;20414;-73
2023/06/05 07:09:40;;;;;;;13.97;9.17;;;20.20;1.00;;;;;;4993783;28;20924;-73
2023/06/05 07:12:07;;;;;;;5.70;2.93;;;20.40;1.00;;;;;;4994065;28;20451;-73
2023/06/05 07:14:36;;;;;;;12.87;3.60;;;20.70;1.00;;;;;;4993609;28;20952;-74
2023/06/05 07:17:01;;;;;;;5.90;3.20;;;20.90;1.00;;;;;;4992707;28;20426;-73
2023/06/05 07:19:31;;;;;;;6.23;2.90;;;21.00;1.00;;;;;;4993621;28;20836;-74
2023/06/05 07:21:59;;;;;;;9.43;3.37;;;21.20;1.00;;;;;;4993790;28;20187;-73
2023/06/05 07:24:25;;;;;;;8.80;3.07;;;21.20;1.00;;;;;;4993217;28;20579;-73
2023/06/05 07:26:53;;;;;;;6.07;3.20;;;21.50;1.00;;;;;;4992437;28;20803;-74
2023/06/05 07:29:19;;;;;;;4.23;2.83;;;21.70;1.00;;;;;;4993414;28;20422;-72
2023/06/05 07:31:46;;;;;;;6.07;3.17;;;22.20;1.00;;;;;;4993613;28;20425;-74
2023/06/05 07:34:12;;;;;;;5.57;3.00;;;22.20;1.00;;;;;;4992448;28;20696;-74
2023/06/05 07:36:38;;;;;;;7.43;3.07;;;22.40;1.00;;;;;;4993447;28;20433;-74
2023/06/05 07:39:04;;;;;;;5.83;3.30;;;22.60;1.00;;;;;;4993953;28;20553;-74
2023/06/05 07:41:30;;;;;;;5.50;3.37;;;22.60;1.00;;;;;;4994252;28;20202;-74
2023/06/05 07:43:55;;;;;;;6.17;3.40;;;22.60;1.00;;;;;;4998072;28;20213;-73
2023/06/05 07:46:21;;;;;;;8.83;3.47;;;22.70;1.00;;;;;;4993187;28;20181;-73
2023/06/05 07:48:46;;;;;;;4.50;2.90;;;23.00;1.00;;;;;;4993404;28;20186;-74
2023/06/05 07:51:12;;;;;;;10.13;3.10;;;23.30;1.00;;;;;;4992012;28;20183;-73
2023/06/05 07:53:37;;;;;;;14.47;3.27;;;25.20;1.00;;;;;;4992571;28;20218;-74
2023/06/05 07:56:03;;;;;;;9.20;3.07;;;23.80;1.00;;;;;;4990682;28;20735;-74
2023/06/05 07:58:29;;;;;;;5.53;2.93;;;23.90;1.00;;;;;;4992928;28;20194;-74
2023/06/05 08:00:56;;;;;;;9.90;3.00;;;26.10;1.00;;;;;;4993222;28;20230;-72
2023/06/05 08:03:23;;;;;;;9.20;3.00;;;24.20;1.00;;;;;;4992037;28;20446;-75
2023/06/05 08:05:51;;;;;;;16.73;4.87;;;24.40;1.00;;;;;;4991766;28;20799;-75
2023/06/05 08:08:18;;;;;;;4.70;2.80;;;24.60;1.00;;;;;;4991379;28;20437;-74
2023/06/05 08:10:44;;;;;;;5.33;3.37;;;24.70;1.00;;;;;;4992773;28;20429;-74
2023/06/05 08:13:10;;;;;;;6.60;3.00;;;24.80;1.00;;;;;;4992937;28;20441;-73
2023/06/05 08:15:36;;;;;;;8.17;3.30;;;24.90;1.00;;;;;;4992597;28;20960;-74
2023/06/05 08:18:02;;;;;;;5.93;3.67;;;25.00;1.00;;;;;;4992645;28;20295;-74
2023/06/05 08:20:27;;;;;;;9.77;3.40;;;25.10;1.00;;;;;;4992374;28;20880;-74
2023/06/05 08:22:57;;;;;;;7.17;3.30;;;25.30;1.00;;;;;;4992366;28;20202;-73
2023/06/05 08:25:23;;;;;;;6.10;3.37;;;25.50;1.00;;;;;;4992383;28;20237;-72
2023/06/05 08:27:49;;;;;;;9.63;3.30;;;25.60;1.00;;;;;;4991306;28;20445;-74
2023/06/05 08:30:14;;;;;;;6.50;3.60;;;25.60;1.00;;;;;;4995419;28;20928;-74
2023/06/05 08:32:40;;;;;;;5.77;3.30;;;25.70;1.00;;;;;;4992217;28;20238;-72
2023/06/05 08:35:06;;;;;;;7.63;3.60;;;25.90;1.00;;;;;;4991149;28;20751;-73
2023/06/05 08:37:32;;;;;;;7.07;3.50;;;26.10;1.00;;;;;;4992087;28;20924;-73
2023/06/05 08:39:59;;;;;;;5.50;3.50;;;26.20;1.00;;;;;;4992624;28;20474;-72
2023/06/05 08:42:28;;;;;;;6.30;3.13;;;26.50;1.00;;;;;;4992098;28;20700;-74
2023/06/05 08:44:54;;;;;;;8.10;3.50;;;26.70;1.00;;;;;;4992454;28;20442;-75
2023/06/05 08:47:24;;;;;;;12.53;3.50;;;26.90;1.00;;;;;;4992449;28;20194;-74
2023/06/05 08:49:53;;;;;;;6.00;3.40;;;27.10;1.00;;;;;;4991158;28;20186;-74
2023/06/05 08:52:22;;;;;;;6.67;3.60;;;27.10;1.00;;;;;;4992059;28;20206;-73
2023/06/05 08:54:49;;;;;;;7.97;3.60;;;27.10;1.00;;;;;;4992199;28;20190;-74
2023/06/05 08:57:14;;;;;;;6.17;3.90;;;27.40;1.00;;;;;;4987192;28;20233;-76
2023/06/05 08:59:40;;;;;;;10.60;3.90;;;27.80;1.00;;;;;;4991853;28;20210;-75
2023/06/05 09:02:06;;;;;;;7.97;4.00;;;28.30;1.00;;;;;;4991935;28;20213;-75
2023/06/05 09:04:32;;;;;;;7.53;3.70;;;28.70;1.00;;;;;;4991519;28;20183;-75
2023/06/05 09:06:59;;;;;;;9.90;3.77;;;29.50;1.00;;;;;;4990769;28;20624;-75
2023/06/05 09:09:25;;;;;;;6.53;3.83;;;30.40;1.00;;;;;;4991751;28;20179;-73
2023/06/05 09:12:08;;;;;;;6.53;4.05;;;32.00;1.00;;;;;;4991831;28;20327;-75
2023/06/05 09:14:34;;;;;;;7.75;3.92;;;32.10;1.00;;;;;;4990498;28;20207;-75
2023/06/05 09:17:01;;;;;;;9.05;3.70;;;33.10;1.00;;;;;;4991523;28;20225;-76
2023/06/05 09:19:36;;;;;;;6.70;3.58;;;34.00;1.00;;;;;;4991282;28;20179;-75
2023/06/05 09:22:02;;;;;;;8.18;3.72;;;35.20;1.00;;;;;;4990244;28;20178;-76
2023/06/05 09:24:30;;;;;;;4.82;3.58;;;35.30;1.00;;;;;;4989915;28;20573;-74
2023/06/05 09:27:05;;;;;;;4.57;3.42;;;35.90;1.00;;;;;;4991674;28;20178;-77
2023/06/05 09:29:41;;;;;;;5.50;3.30;;;36.10;1.00;;;;;;4991001;28;20170;-75
2023/06/05 09:32:13;;;;;;;5.20;3.88;;;36.10;1.00;;;;;;4991450;28;20199;-76
2023/06/05 09:34:40;;;;;;;5.50;3.78;;;36.00;1.00;;;;;;4991077;28;20183;-76
2023/06/05 09:37:12;;;;;;;6.20;3.58;;;36.30;1.00;;;;;;5067090;28;20521;-75
2023/06/05 09:39:40;;;;;;;5.97;4.13;;;36.90;1.00;;;;;;5066911;28;20188;-76
2023/06/05 09:42:06;;;;;;;7.68;3.58;;;37.80;1.00;;;;;;5063973;28;20269;-76
2023/06/05 09:44:33;;;;;;;6.90;3.42;;;37.90;1.00;;;;;;5046787;28;20706;-75
2023/06/05 09:47:03;;;;;;;6.70;3.58;;;38.20;1.00;;;;;;5047227;28;20647;-76
2023/06/05 09:49:47;;;;;;;9.45;3.63;;;37.80;1.00;;;;;;5046980;28;20168;-76
2023/06/05 09:52:13;;;;;;;9.55;3.80;;;37.90;1.00;;;;;;5105382;22;20200;-75
2023/06/05 09:54:41;;;;;;;8.20;3.60;;;37.80;1.00;;;;;;5064847;28;20199;-75
2023/06/05 09:57:12;;;;;;;6.90;3.50;;;38.30;1.00;;;;;;5046563;28;20231;-75
2023/06/05 09:59:53;;;;;;;6.15;3.47;;;38.60;1.00;;;;;;5066959;28;20187;-76
2023/06/05 10:02:33;;;;;;;6.78;3.25;;;38.60;1.00;;;;;;5067264;28;20215;-76
2023/06/05 10:05:02;;;;;;;4.07;3.25;;;38.70;1.00;;;;;;5067269;28;20178;-76
2023/06/05 10:07:29;;;;;;;7.22;3.72;;;38.70;1.00;;;;;;5066884;28;20198;-74
2023/06/05 10:09:56;;;;;;;6.32;3.88;;;38.70;1.00;;;;;;5067389;28;20255;-75
2023/06/05 10:12:24;;;;;;;4.90;3.40;;;38.40;1.00;;;;;;5067036;28;20207;-76
2023/06/05 10:14:50;;;;;;;8.73;3.90;;;39.10;1.00;;;;;;5048795;28;20177;-76
2023/06/05 10:17:16;;;;;;;6.93;3.80;;;39.40;1.00;;;;;;5066863;28;20180;-76
2023/06/05 10:19:43;;;;;;;8.02;3.70;;;39.50;1.00;;;;;;5066653;28;20259;-76
2023/06/05 10:22:13;;;;;;;5.82;3.80;;;40.20;1.00;;;;;;5066454;28;20558;-76
2023/06/05 10:24:48;;;;;;;6.93;3.45;;;40.20;1.00;;;;;;5066700;28;20508;-75
2023/06/05 10:27:22;;;;;;;5.72;3.55;;;40.50;1.00;;;;;;5066846;28;20229;-76
2023/06/05 10:30:25;;;;;;;4.95;3.80;;;40.60;1.00;;;;;;5066142;28;20192;-76
2023/06/05 10:33:12;;;;;;;5.40;3.90;;;40.40;1.00;;;;;;5066348;28;20616;-76
2023/06/05 10:36:03;;;;;;;5.45;4.00;;;40.10;1.00;;;;;;5066281;28;20200;-76
2023/06/05 10:38:30;;;;;;;5.07;3.75;;;39.70;1.00;;;;;;5066199;28;20271;-74
2023/06/05 10:40:58;;;;;;;5.97;3.92;;;38.80;1.00;;;;;;5066602;28;20263;-76
2023/06/05 10:43:29;;;;;;;8.52;4.38;;;38.10;1.00;;;;;;5066343;28;20200;-76
2023/06/05 10:45:57;;;;;;;6.38;4.10;;;38.30;1.00;;;;;;5066344;28;20195;-76
2023/06/05 10:49:01;;;;;;;8.68;3.65;;;39.30;1.00;;;;;;5053997;28;20192;-76
2023/06/05 10:51:49;;;;;;;11.43;3.75;;;40.70;1.00;;;;;;5035004;28;20234;-76
2023/06/05 10:54:24;;;;;;;5.90;3.65;;;40.80;1.00;;;;;;5052824;28;20213;-75
2023/06/05 10:56:58;;;;;;;4.35;3.45;;;39.20;1.00;;;;;;5028427;28;20206;-75
2023/06/05 10:59:26;;;;;;;7.07;3.83;;;38.20;1.00;;;;;;5035031;28;20187;-76
2023/06/05 11:02:16;;;;;;;8.85;3.92;;;38.30;1.00;;;;;;5034679;28;20180;-75
2023/06/05 11:04:46;;;;;;;6.30;4.30;;;39.00;1.00;;;;;;5052738;28;20591;-75
2023/06/05 11:07:18;;;;;;;5.95;3.80;;;39.30;1.00;;;;;;5052613;28;20177;-76
2023/06/05 11:10:15;;;;;;;9.07;3.55;;;40.40;1.00;;;;;;5052414;28;20181;-75
2023/06/05 11:12:40;;;;;;;3.95;3.17;;;41.80;1.00;;;;;;5044420;28;20212;-75
2023/06/05 11:15:08;;;;;;;6.28;3.38;;;42.40;1.00;;;;;;5052651;28;20208;-76
2023/06/05 11:17:35;;;;;;;5.03;3.47;;;42.90;1.00;;;;;;5052070;28;20356;-75
2023/06/05 11:20:05;;;;;;;4.90;3.40;;;42.90;1.00;;;;;;5052723;28;20187;-76
2023/06/05 11:22:31;;;;;;;9.77;3.60;;;42.30;1.00;;;;;;5052017;28;20208;-75
2023/06/05 11:25:16;;;;;;;4.43;3.20;;;42.30;1.00;;;;;;5034746;28;20208;-76
2023/06/05 11:27:43;;;;;;;4.43;3.30;;;42.90;1.00;;;;;;5052430;28;20531;-76
2023/06/05 11:30:13;;;;;;;7.20;3.65;;;42.70;1.00;;;;;;5052323;28;20187;-76
2023/06/05 11:32:39;;;;;;;5.03;3.47;;;42.60;1.00;;;;;;5051939;28;20193;-75
2023/06/05 11:35:05;;;;;;;7.47;3.35;;;42.00;1.00;;;;;;5052220;28;20179;-76
2023/06/05 11:37:34;;;;;;;5.28;3.53;;;42.00;1.00;;;;;;5052086;28;20192;-75
2023/06/05 11:40:08;;;;;;;5.95;3.00;;;41.90;1.00;;;;;;5052343;28;20200;-76
2023/06/05 11:42:34;;;;;;;4.32;3.15;;;41.90;1.00;;;;;;5051505;28;20199;-75
2023/06/05 11:45:00;;;;;;;7.32;3.20;;;42.10;1.00;;;;;;5052105;28;20184;-76
2023/06/05 11:47:30;;;;;;;4.50;3.35;;;42.60;1.00;;;;;;5050438;28;20185;-76
2023/06/05 11:50:08;;;;;;;6.93;3.72;;;42.90;1.00;;;;;;5051764;28;20263;-76
2023/06/05 11:52:34;;;;;;;3.90;3.20;;;43.20;1.00;;;;;;5033409;28;20295;-75
2023/06/05 11:55:21;;;;;;;5.40;3.55;;;42.20;1.00;;;;;;5051649;28;20186;-76
2023/06/05 11:57:48;;;;;;;6.05;3.20;;;42.10;1.00;;;;;;5044777;28;20180;-75
2023/06/05 12:00:14;;;;;;;4.03;2.88;;;41.40;1.00;;;;;;5050439;28;20324;-76
2023/06/05 12:02:43;;;;;;;6.03;3.10;;;42.60;1.00;;;;;;5050837;28;20752;-76
2023/06/05 12:05:09;;;;;;;8.43;3.22;;;43.30;1.00;;;;;;5051255;28;20195;-76
2023/06/05 12:07:39;;;;;;;4.38;3.15;;;43.90;1.00;;;;;;5050945;28;20208;-75
2023/06/05 12:10:07;;;;;;;5.97;3.58;;;44.40;1.00;;;;;;5051186;28;20219;-76
2023/06/05 12:12:50;;;;;;;4.28;3.05;;;44.60;1.00;;;;;;5050636;28;20254;-75
2023/06/05 12:15:16;;;;;;;4.90;3.17;;;43.80;1.00;;;;;;5045023;28;20213;-76
2023/06/05 12:17:52;;;;;;;4.63;3.20;;;43.30;1.00;;;;;;5050541;28;20189;-76
2023/06/05 12:20:18;;;;;;;5.47;2.70;;;42.90;1.00;;;;;;5033277;28;20657;-76
2023/06/05 12:22:44;;;;;;;9.07;3.30;;;42.80;1.00;;;;;;5050298;28;20227;-75
2023/06/05 12:25:17;;;;;;;11.73;3.20;;;42.60;1.00;;;;;;5050779;28;20671;-76
2023/06/05 12:27:45;;;;;;;11.30;3.50;;;42.20;1.00;;;;;;5050346;28;20188;-76
2023/06/05 12:30:11;;;;;;;4.60;3.08;;;42.10;1.00;;;;;;5050847;28;20176;-75
2023/06/05 12:32:38;;;;;;;6.78;3.15;;;41.50;1.00;;;;;;5050004;28;20215;-75
2023/06/05 12:35:05;;;;;;;5.57;3.20;;;41.60;1.00;;;;;;5050491;28;20581;-76
2023/06/05 12:37:37;;;;;;;4.75;3.20;;;40.10;1.00;;;;;;5050510;28;20219;-74
2023/06/05 12:40:10;;;;;;;8.95;3.22;;;38.80;1.00;;;;;;5032642;28;20287;-76
2023/06/05 12:42:37;;;;;;;4.15;3.00;;;38.30;1.00;;;;;;5050080;28;20204;-75
2023/06/05 12:45:07;;;;;;;6.30;3.40;;;39.40;1.00;;;;;;5032289;28;20204;-76
2023/06/05 12:47:33;;;;;;;6.95;3.55;;;40.40;1.00;;;;;;5050316;28;20173;-74
2023/06/05 12:49:59;;;;;;;6.72;3.65;;;39.20;1.00;;;;;;5050143;28;20238;-76
2023/06/05 12:52:25;;;;;;;8.10;3.58;;;36.90;1.00;;;;;;5049973;28;20200;-76
2023/06/05 12:54:54;;;;;;;6.63;3.42;;;36.30;1.00;;;;;;5049894;28;20184;-76
2023/06/05 12:57:20;;;;;;;8.43;3.78;;;36.60;1.00;;;;;;5032035;28;20184;-76
2023/06/05 12:59:47;;;;;;;4.10;3.25;;;37.30;1.00;;;;;;5049623;28;20184;-75